createdAt,value
2022-12-08T00:02:14.018Z,97661.13
2022-12-08T00:04:43.961Z,97651.28
2022-12-08T00:07:10.622Z,97660.69
2022-12-08T00:09:40.469Z,97640.84
2022-12-08T00:12:11.723Z,97656.06
2022-12-08T00:14:39.911Z,97644.19
2022-12-08T00:17:08.827Z,97650.72
2022-12-08T00:19:36.285Z,97586.94
2022-12-08T00:22:03.204Z,97636.38
2022-12-08T00:24:32.346Z,97585.31
2022-12-08T00:26:58.974Z,97630.09
2022-12-08T00:29:25.692Z,97639.16
2022-12-08T00:31:52.592Z,97617.81
2022-12-08T00:34:20.097Z,97634.91
2022-12-08T00:36:47.109Z,97620.13
2022-12-08T00:39:15.465Z,97602.75
2022-12-08T00:41:42.277Z,97629.31
2022-12-08T00:44:10.542Z,97606.34
2022-12-08T00:46:37.799Z,97624.88
2022-12-08T00:49:05.799Z,97627.72
2022-12-08T00:51:32.885Z,97627.50
2022-12-08T00:53:59.585Z,97620.97
2022-12-08T00:56:26.950Z,97614.84
2022-12-08T00:58:53.699Z,97624.31
2022-12-08T01:01:20.380Z,97626.06
2022-12-08T01:03:47.707Z,97599.84
2022-12-08T01:06:14.366Z,97615.41
2022-12-08T01:08:41.437Z,97614.66
2022-12-08T01:11:11.574Z,97614.38
2022-12-08T01:13:38.604Z,97618.00
2022-12-08T01:16:05.604Z,97613.91
2022-12-08T01:18:32.863Z,97456.72
2022-12-08T01:21:04.882Z,97610.34
2022-12-08T01:23:31.680Z,97608.72
2022-12-08T01:26:05.517Z,97607.25
2022-12-08T01:28:32.791Z,97622.44
2022-12-08T01:31:01.167Z,97620.97
2022-12-08T01:33:28.634Z,97613.84
2022-12-08T01:35:55.910Z,97613.22
2022-12-08T01:38:23.230Z,97589.91
2022-12-08T01:40:49.888Z,97599.44
2022-12-08T01:43:20.690Z,97580.69
2022-12-08T01:45:47.776Z,97602.97
2022-12-08T01:48:27.316Z,97603.69
2022-12-08T01:50:55.794Z,97610.03
2022-12-08T01:53:29.764Z,97607.13
2022-12-08T01:56:02.750Z,97581.03
2022-12-08T01:58:35.215Z,97607.50
2022-12-08T02:01:02.123Z,97607.88
2022-12-08T02:03:49.339Z,97604.00
2022-12-08T02:06:17.791Z,97603.56
2022-12-08T02:08:45.906Z,97604.88
2022-12-08T02:11:13.316Z,97587.88
2022-12-08T02:13:43.061Z,97597.84
2022-12-08T02:16:28.253Z,97590.81
2022-12-08T02:19:31.207Z,97592.97
2022-12-08T02:22:07.229Z,97596.38
2022-12-08T02:24:50.393Z,97587.25
2022-12-08T02:27:19.749Z,97589.72
2022-12-08T02:30:05.096Z,97584.88
2022-12-08T02:32:44.509Z,97578.22
2022-12-08T02:35:43.334Z,97581.75
2022-12-08T02:38:16.833Z,97566.75
2022-12-08T02:40:46.564Z,97580.63
2022-12-08T02:43:21.070Z,97577.78
2022-12-08T02:45:52.295Z,97582.47
2022-12-08T02:48:19.073Z,97582.22
2022-12-08T02:50:45.981Z,97543.88
2022-12-08T02:56:02.742Z,97570.53
2022-12-08T02:58:38.391Z,97570.94
2022-12-08T03:01:31.113Z,97565.41
2022-12-08T03:04:10.145Z,97573.59
2022-12-08T03:07:01.518Z,97563.72
2022-12-08T03:09:40.268Z,97555.22
2022-12-08T03:12:19.977Z,97552.59
2022-12-08T03:14:50.459Z,97563.31
2022-12-08T03:17:21.751Z,97564.44
2022-12-08T03:19:49.262Z,97555.09
2022-12-08T03:22:21.985Z,97558.22
2022-12-08T03:24:49.519Z,97550.91
2022-12-08T03:27:19.888Z,97553.91
2022-12-08T03:29:52.106Z,97554.78
2022-12-08T03:32:47.591Z,97542.28
2022-12-08T03:35:17.640Z,97545.56
2022-12-08T03:37:44.578Z,97531.06
2022-12-08T03:40:14.938Z,97541.91
2022-12-08T03:42:41.937Z,97524.94
2022-12-08T03:45:08.879Z,97541.16
2022-12-08T03:47:35.466Z,97536.63
2022-12-08T03:50:02.563Z,97536.25
2022-12-08T03:52:29.373Z,97528.13
2022-12-08T03:54:56.034Z,97524.59
2022-12-08T03:57:22.684Z,97518.84
2022-12-08T03:59:49.326Z,97526.16
2022-12-08T04:02:15.955Z,97519.25
2022-12-08T04:04:43.201Z,97515.63
2022-12-08T04:07:09.817Z,97508.59
2022-12-08T04:09:36.489Z,97508.44
2022-12-08T04:12:03.231Z,97509.09
2022-12-08T04:14:29.930Z,97515.63
2022-12-08T04:16:56.491Z,97516.00
2022-12-08T04:19:23.273Z,97505.22
2022-12-08T04:21:49.868Z,97509.56
2022-12-08T04:24:16.577Z,97501.91
2022-12-08T04:26:43.282Z,97490.47
2022-12-08T04:29:10.278Z,97499.84
2022-12-08T04:31:39.081Z,97495.47
2022-12-08T04:34:05.855Z,97493.59
2022-12-08T04:36:32.747Z,97482.44
2022-12-08T04:39:00.016Z,97486.03
2022-12-08T04:41:26.714Z,97483.03
2022-12-08T04:43:53.432Z,97492.28
2022-12-08T04:46:20.077Z,97486.13
2022-12-08T04:48:46.850Z,97481.75
2022-12-08T04:51:16.943Z,97476.00
2022-12-08T04:53:46.643Z,97469.69
2022-12-08T04:56:21.066Z,97465.00
2022-12-08T04:58:47.731Z,97471.00
2022-12-08T05:01:14.701Z,97470.19
2022-12-08T05:03:41.543Z,97470.19
2022-12-08T05:06:11.835Z,97431.69
2022-12-08T05:08:38.470Z,97465.69
2022-12-08T05:11:07.170Z,97472.22
2022-12-08T05:13:33.914Z,97470.06
2022-12-08T05:16:05.616Z,97470.44
2022-12-08T05:18:32.450Z,97458.53
2022-12-08T05:20:59.083Z,97469.25
2022-12-08T05:23:26.603Z,97455.22
2022-12-08T05:25:53.465Z,97464.28
2022-12-08T05:28:40.697Z,97455.72
2022-12-08T05:31:07.259Z,97455.16
2022-12-08T05:33:33.867Z,97454.75
2022-12-08T05:36:00.566Z,97453.88
2022-12-08T05:38:27.233Z,97451.28
2022-12-08T05:40:53.868Z,97436.50
2022-12-08T05:43:20.572Z,97462.06
2022-12-08T05:45:47.312Z,97458.84
2022-12-08T05:48:13.931Z,97457.09
2022-12-08T05:50:45.375Z,97456.28
2022-12-08T05:53:12.138Z,97460.53
2022-12-08T05:55:38.717Z,97455.66
2022-12-08T05:58:08.154Z,97454.69
2022-12-08T06:00:34.925Z,97457.28
2022-12-08T06:03:01.783Z,97453.69
2022-12-08T06:05:28.467Z,97463.31
2022-12-08T06:07:55.348Z,97460.75
2022-12-08T06:10:21.962Z,97453.28
2022-12-08T06:12:48.648Z,97452.09
2022-12-08T06:15:15.495Z,97456.56
2022-12-08T06:17:42.129Z,97447.72
2022-12-08T06:20:09.183Z,97444.69
2022-12-08T06:22:36.647Z,97453.63
2022-12-08T06:25:07.170Z,97403.59
2022-12-08T06:27:36.394Z,97450.88
2022-12-08T06:30:03.758Z,97446.72
2022-12-08T06:32:31.005Z,97447.88
2022-12-08T06:34:57.662Z,97447.19
2022-12-08T06:37:24.451Z,97443.50
2022-12-08T06:39:51.027Z,97444.88
2022-12-08T06:42:17.734Z,97443.41
2022-12-08T06:44:44.426Z,97449.75
2022-12-08T06:47:11.136Z,97446.53
2022-12-08T06:49:37.743Z,97446.88
2022-12-08T06:52:04.784Z,97447.06
2022-12-08T06:54:31.359Z,97450.31
2022-12-08T06:56:58.029Z,97449.75
2022-12-08T06:59:24.790Z,97448.97
2022-12-08T07:01:52.073Z,97440.94
2022-12-08T07:04:18.742Z,97445.50
2022-12-08T07:06:45.510Z,97452.38
2022-12-08T07:09:12.093Z,97442.78
2022-12-08T07:11:39.260Z,97451.06
2022-12-08T07:14:05.942Z,97447.25
2022-12-08T07:16:32.727Z,97453.78
2022-12-08T07:19:00.293Z,97453.78
2022-12-08T07:21:27.026Z,97453.19
2022-12-08T07:23:57.574Z,97418.94
2022-12-08T07:26:24.995Z,97453.00
2022-12-08T07:28:51.706Z,97454.09
2022-12-08T07:31:23.679Z,97455.84
2022-12-08T07:33:50.742Z,97447.09
2022-12-08T07:36:17.577Z,97439.66
2022-12-08T07:38:44.733Z,97452.22
2022-12-08T07:41:19.940Z,97447.78
2022-12-08T07:43:47.070Z,97443.09
2022-12-08T07:46:16.269Z,97448.78
2022-12-08T07:48:43.286Z,97457.38
2022-12-08T07:51:11.630Z,97448.25
2022-12-08T07:53:45.295Z,97436.31
2022-12-08T07:56:14.220Z,97451.44
2022-12-08T07:58:41.452Z,97455.19
2022-12-08T08:01:28.840Z,97454.38
2022-12-08T08:03:57.224Z,97453.69
2022-12-08T08:06:24.263Z,97452.91
2022-12-08T08:08:51.056Z,97453.31
2022-12-08T08:11:21.410Z,97413.09
2022-12-08T08:13:49.926Z,97446.50
2022-12-08T08:16:17.904Z,97427.31
2022-12-08T08:18:50.241Z,97446.78
2022-12-08T08:24:05.720Z,97448.66
2022-12-08T08:26:33.623Z,97450.00
2022-12-08T08:29:00.300Z,97435.50
2022-12-08T08:31:27.441Z,97450.81
2022-12-08T08:33:55.717Z,97446.06
2022-12-08T08:36:22.386Z,97449.66
2022-12-08T08:38:49.027Z,97451.16
2022-12-08T08:41:15.823Z,97451.78
2022-12-08T08:43:43.408Z,97453.78
2022-12-08T08:46:10.211Z,97443.22
2022-12-08T08:48:38.178Z,97451.72
2022-12-08T08:51:12.627Z,97449.63
2022-12-08T08:53:40.503Z,97448.88
2022-12-08T08:56:11.911Z,97445.84
2022-12-08T08:58:38.903Z,97450.06
2022-12-08T09:01:07.049Z,97388.63
2022-12-08T09:03:34.131Z,97444.97
2022-12-08T09:06:00.816Z,97451.44
2022-12-08T09:08:28.547Z,97450.00
2022-12-08T09:10:55.217Z,97447.97
2022-12-08T09:13:21.877Z,97446.00
2022-12-08T09:15:48.572Z,97446.97
2022-12-08T09:18:15.282Z,97449.88
2022-12-08T09:20:41.876Z,97451.84
2022-12-08T09:23:09.241Z,97441.47
2022-12-08T09:25:35.824Z,97448.19
2022-12-08T09:28:02.502Z,97444.09
2022-12-08T09:30:29.171Z,97444.09
2022-12-08T09:32:55.959Z,97446.41
2022-12-08T09:35:22.529Z,97448.50
2022-12-08T09:37:49.290Z,97448.69
2022-12-08T09:40:19.835Z,97447.38
2022-12-08T09:42:54.379Z,97439.56
2022-12-08T09:45:23.401Z,97433.84
2022-12-08T09:47:59.082Z,97428.47
2022-12-08T09:50:46.550Z,97435.63
2022-12-08T09:53:23.400Z,97434.31
2022-12-08T09:55:55.615Z,97425.88
2022-12-08T09:58:51.095Z,97423.88
2022-12-08T10:01:18.984Z,97418.97
2022-12-08T10:03:45.593Z,97413.13
2022-12-08T10:06:51.452Z,97414.78
2022-12-08T10:09:45.521Z,97420.97
2022-12-08T10:12:16.264Z,97420.66
2022-12-08T10:14:55.876Z,97411.19
2022-12-08T10:17:27.027Z,97408.91
2022-12-08T10:20:04.015Z,97409.75
2022-12-08T10:22:38.663Z,97401.47
2022-12-08T10:25:20.791Z,97392.44
2022-12-08T10:27:52.091Z,97393.72
2022-12-08T10:30:20.842Z,97364.44
2022-12-08T10:32:52.894Z,97388.88
2022-12-08T10:35:24.568Z,97395.22
2022-12-08T10:37:59.929Z,97390.03
2022-12-08T10:40:34.911Z,97391.16
2022-12-08T10:43:03.367Z,97394.44
2022-12-08T10:45:37.047Z,97352.09
2022-12-08T10:48:12.739Z,97380.94
2022-12-08T10:51:04.507Z,97374.75
2022-12-08T10:53:34.063Z,97381.59
2022-12-08T10:56:03.775Z,97371.47
2022-12-08T10:58:30.491Z,97369.03
2022-12-08T11:01:22.090Z,97364.63
2022-12-08T11:03:57.495Z,97363.84
2022-12-08T11:06:32.192Z,97359.25
2022-12-08T11:09:02.672Z,97358.13
2022-12-08T11:11:57.677Z,97359.25
2022-12-08T11:14:30.862Z,97356.16
2022-12-08T11:17:08.342Z,97351.75
2022-12-08T11:19:48.214Z,97353.53
2022-12-08T11:22:56.900Z,97355.84
2022-12-08T11:25:28.116Z,97358.78
2022-12-08T11:27:58.423Z,97353.91
2022-12-08T11:30:29.843Z,97351.47
2022-12-08T11:33:01.896Z,97354.91
2022-12-08T11:35:45.474Z,97353.56
2022-12-08T11:38:21.568Z,97351.94
2022-12-08T11:41:00.459Z,97345.78
2022-12-08T11:43:35.550Z,97345.94
2022-12-08T11:46:15.212Z,97345.13
2022-12-08T11:49:01.254Z,97337.47
2022-12-08T11:51:37.349Z,97343.00
2022-12-08T11:54:18.969Z,97345.75
2022-12-08T11:56:53.952Z,97344.81
2022-12-08T11:59:35.728Z,97286.19
2022-12-08T12:02:05.226Z,97341.06
2022-12-08T12:04:39.693Z,97347.25
2022-12-08T12:07:29.132Z,97336.97
2022-12-08T12:10:33.297Z,97335.81
2022-12-08T12:13:50.491Z,97329.34
2022-12-08T12:16:54.655Z,97332.09
2022-12-08T12:19:23.746Z,97324.44
2022-12-08T12:21:56.325Z,97319.19
2022-12-08T12:24:36.075Z,97305.88
2022-12-08T12:27:15.576Z,97324.69
2022-12-08T12:29:56.440Z,97320.00
2022-12-08T12:32:24.487Z,97317.22
2022-12-08T12:34:55.269Z,97314.78
2022-12-08T12:37:36.006Z,97319.34
2022-12-08T12:40:11.918Z,97317.25
2022-12-08T12:42:41.086Z,97318.72
2022-12-08T12:45:16.758Z,97316.09
2022-12-08T12:47:50.877Z,97318.41
2022-12-08T12:50:32.938Z,97317.59
2022-12-08T12:53:06.815Z,97282.38
2022-12-08T12:55:55.877Z,97308.75
2022-12-08T12:58:35.751Z,97314.78
2022-12-08T13:01:11.438Z,97312.69
2022-12-08T13:03:44.056Z,97306.66
2022-12-08T13:06:14.555Z,97308.28
2022-12-08T13:08:53.289Z,97310.53
2022-12-08T13:11:21.171Z,97306.31
2022-12-08T13:14:03.717Z,97295.69
2022-12-08T13:16:40.938Z,97307.59
2022-12-08T13:19:16.110Z,97306.47
2022-12-08T13:21:46.186Z,97308.28
2022-12-08T13:24:30.372Z,97274.56
2022-12-08T13:27:03.080Z,97297.47
2022-12-08T13:29:31.691Z,97236.91
2022-12-08T13:31:58.961Z,97287.03
2022-12-08T13:34:34.814Z,97284.19
2022-12-08T13:37:01.560Z,97287.88
2022-12-08T13:39:35.512Z,97281.06
2022-12-08T13:42:23.813Z,97285.84
2022-12-08T13:49:32.043Z,97284.31
2022-12-08T13:57:30.420Z,97258.16
2022-12-08T14:00:18.832Z,97305.50
2022-12-08T14:02:49.940Z,97269.56
2022-12-08T14:05:29.790Z,97302.09
2022-12-08T14:08:01.922Z,97301.28
2022-12-08T14:10:31.131Z,97293.31
2022-12-08T14:13:05.771Z,97302.72
2022-12-08T14:15:37.601Z,97303.84
2022-12-08T14:18:07.073Z,97310.72
2022-12-08T14:20:57.736Z,97308.44
2022-12-08T14:23:22.335Z,97309.91
2022-12-08T14:25:56.266Z,97307.31
2022-12-08T14:28:24.384Z,97314.47
2022-12-08T14:30:51.010Z,97308.94
2022-12-08T14:33:17.894Z,97307.97
2022-12-08T14:35:50.782Z,97273.81
2022-12-08T14:38:19.558Z,97306.31
2022-12-08T14:40:59.322Z,97320.00
2022-12-08T14:43:28.230Z,97316.09
2022-12-08T14:46:01.535Z,97313.53
2022-12-08T14:48:31.299Z,97321.81
2022-12-08T14:51:03.665Z,97323.63
2022-12-08T14:53:43.899Z,97318.25
2022-12-08T14:56:27.190Z,97328.19
2022-12-08T14:59:25.676Z,97323.28
2022-12-08T15:02:08.951Z,97321.66
2022-12-08T15:04:38.904Z,97310.06
2022-12-08T15:07:16.078Z,97321.31
2022-12-08T15:09:48.942Z,97320.16
2022-12-08T15:12:15.561Z,97326.69
2022-12-08T15:14:54.286Z,97326.84
2022-12-08T15:17:50.915Z,97326.03
2022-12-08T15:20:39.992Z,97324.06
2022-12-08T15:23:24.828Z,97237.50
2022-12-08T15:26:05.958Z,97267.31
2022-12-08T15:28:32.737Z,97174.59
2022-12-08T15:30:59.374Z,97320.31
2022-12-08T15:33:27.041Z,97326.16
2022-12-08T15:35:53.986Z,97333.22
2022-12-08T15:38:24.634Z,97324.84
2022-12-08T15:40:55.878Z,97326.31
2022-12-08T15:43:22.958Z,97339.72
2022-12-08T15:46:00.091Z,97328.16
2022-12-08T15:48:30.325Z,97303.59
2022-12-08T15:50:57.532Z,97339.88
2022-12-08T15:53:24.200Z,97337.44
2022-12-08T15:56:26.531Z,97335.47
2022-12-08T15:58:55.293Z,97290.06
2022-12-08T16:01:23.961Z,97342.97
2022-12-08T16:07:19.691Z,97336.78
2022-12-08T16:09:42.286Z,97345.72
2022-12-08T16:12:16.839Z,97338.91
2022-12-08T16:17:31.528Z,97306.69
2022-12-08T16:19:59.199Z,97339.22
2022-12-08T16:22:54.166Z,97325.25
2022-12-08T16:25:20.698Z,97338.91
2022-12-08T16:28:29.544Z,97342.16
2022-12-08T16:30:37.755Z,97340.22
2022-12-08T16:33:04.902Z,97340.03
2022-12-08T16:35:32.035Z,97339.69
2022-12-08T16:37:58.713Z,97346.56
2022-12-08T16:40:25.745Z,97334.81
2022-12-08T16:42:52.404Z,97338.09
2022-12-08T16:45:19.139Z,97340.41
2022-12-08T16:47:48.602Z,97337.91
2022-12-08T16:50:21.572Z,97286.34
2022-12-08T16:52:49.713Z,97352.25
2022-12-08T16:55:18.836Z,97351.97
2022-12-08T16:57:46.691Z,97345.13
2022-12-08T17:00:16.355Z,97347.41
2022-12-08T17:02:43.191Z,97348.53
2022-12-08T17:05:12.013Z,97346.75
2022-12-08T17:07:38.769Z,97346.91
2022-12-08T17:10:07.764Z,97346.59
2022-12-08T17:12:34.810Z,97354.56
2022-12-08T17:15:10.076Z,97353.91
2022-12-08T17:17:37.036Z,97348.56
2022-12-08T17:20:15.955Z,97345.91
2022-12-08T17:22:42.713Z,97344.44
2022-12-08T17:25:09.557Z,97341.19
2022-12-08T17:27:36.675Z,97299.38
2022-12-08T17:30:05.176Z,97347.03
2022-12-08T17:32:32.405Z,97343.31
2022-12-08T17:34:59.119Z,97352.13
2022-12-08T17:37:26.044Z,97352.78
2022-12-08T17:39:52.639Z,97347.22
2022-12-08T17:42:19.313Z,97344.81
2022-12-08T17:44:46.024Z,97361.41
2022-12-08T17:47:12.700Z,97352.13
2022-12-08T17:49:41.501Z,97358.66
2022-12-08T17:52:08.252Z,97360.75
2022-12-08T17:54:37.069Z,97355.88
2022-12-08T17:57:04.470Z,97360.91
2022-12-08T17:59:31.520Z,97358.28
2022-12-08T18:01:59.345Z,97325.88
2022-12-08T18:04:27.235Z,97354.81
2022-12-08T18:06:54.439Z,97356.97
2022-12-08T18:09:21.579Z,97362.34
2022-12-08T18:11:49.156Z,97355.69
2022-12-08T18:14:16.240Z,97362.84
2022-12-08T18:16:45.998Z,97348.50
2022-12-08T18:19:14.102Z,97358.94
2022-12-08T18:21:41.852Z,97355.84
2022-12-08T18:24:16.321Z,97360.06
2022-12-08T18:26:43.047Z,97367.53
2022-12-08T18:29:09.679Z,97367.03
2022-12-08T18:31:36.425Z,97366.59
2022-12-08T18:34:03.962Z,97367.88
2022-12-08T18:36:30.749Z,97366.41
2022-12-08T18:38:58.120Z,97367.25
2022-12-08T18:41:25.290Z,97363.13
2022-12-08T18:43:56.008Z,97366.88
2022-12-08T18:46:24.079Z,97364.28
2022-12-08T18:48:51.965Z,97369.00
2022-12-08T18:51:22.031Z,97369.78
2022-12-08T18:53:49.157Z,97368.34
2022-12-08T18:56:28.230Z,97369.00
2022-12-08T18:59:02.624Z,97367.53
2022-12-08T19:01:31.391Z,97370.91
2022-12-08T19:04:26.781Z,97367.69
2022-12-08T19:06:46.171Z,97371.44
2022-12-08T19:09:13.090Z,97364.91
2022-12-08T19:11:41.588Z,97367.69
2022-12-08T19:14:08.857Z,97373.88
2022-12-08T19:16:35.719Z,97369.34
2022-12-08T19:19:02.759Z,97372.31
2022-12-08T19:21:29.622Z,97375.06
2022-12-08T19:23:56.635Z,97363.31
2022-12-08T19:26:23.783Z,97368.19
2022-12-08T19:28:50.432Z,97370.16
2022-12-08T19:31:17.257Z,97375.38
2022-12-08T19:33:55.363Z,97373.28
2022-12-08T19:36:23.177Z,97379.00
2022-12-08T19:38:49.840Z,97379.00
2022-12-08T19:41:17.042Z,97375.56
2022-12-08T19:43:43.677Z,97369.03
2022-12-08T19:46:10.576Z,97376.22
2022-12-08T19:48:37.528Z,97378.97
2022-12-08T19:51:05.000Z,97375.56
2022-12-08T19:53:31.698Z,97373.63
2022-12-08T19:56:00.195Z,97379.13
2022-12-08T19:58:26.937Z,97354.56
2022-12-08T20:00:53.745Z,97381.75
2022-12-08T20:03:22.171Z,97376.69
2022-12-08T20:05:51.480Z,97377.84
2022-12-08T20:08:18.242Z,97383.53
2022-12-08T20:10:45.704Z,97384.50
2022-12-08T20:13:13.635Z,97385.78
2022-12-08T20:15:40.683Z,97394.91
2022-12-08T20:18:11.656Z,97388.75
2022-12-08T20:20:40.156Z,97388.72
2022-12-08T20:23:07.484Z,97390.22
2022-12-08T20:25:34.689Z,97393.31
2022-12-08T20:28:01.416Z,97389.53
2022-12-08T20:30:28.107Z,97388.09
2022-12-08T20:32:54.722Z,97380.28
2022-12-08T20:35:21.604Z,97387.09
2022-12-08T20:37:48.256Z,97389.22
2022-12-08T20:40:15.099Z,97385.50
2022-12-08T20:42:41.737Z,97393.63
2022-12-08T20:45:09.137Z,97377.00
2022-12-08T20:47:36.534Z,97392.13
2022-12-08T20:50:05.664Z,97394.56
2022-12-08T20:52:32.534Z,97394.09
2022-12-08T20:54:59.384Z,97380.28
2022-12-08T20:57:26.046Z,97358.09
2022-12-08T20:59:52.830Z,97392.78
2022-12-08T21:02:19.799Z,97392.78
2022-12-08T21:04:46.820Z,97386.91
2022-12-08T21:07:13.517Z,97384.97
2022-12-08T21:09:40.737Z,97392.78
2022-12-08T21:12:07.695Z,97387.94
2022-12-08T21:14:34.608Z,97388.56
2022-12-08T21:17:01.427Z,97389.06
2022-12-08T21:19:28.315Z,97390.44
2022-12-08T21:21:55.244Z,97388.03
2022-12-08T21:24:22.236Z,97393.22
2022-12-08T21:26:49.277Z,97395.00
2022-12-08T21:29:16.118Z,97387.94
2022-12-08T21:31:42.943Z,97394.47
2022-12-08T21:34:10.549Z,97394.47
2022-12-08T21:36:37.319Z,97390.72
2022-12-08T21:39:04.041Z,97342.69
2022-12-08T21:41:30.675Z,97384.09
2022-12-08T21:43:57.364Z,97385.75
2022-12-08T21:46:24.177Z,97392.25
2022-12-08T21:48:50.880Z,97353.53
2022-12-08T21:51:17.873Z,97383.16
2022-12-08T21:53:44.625Z,97386.91
2022-12-08T21:56:11.423Z,97392.72
2022-12-08T21:58:38.284Z,97379.91
2022-12-08T22:01:10.720Z,97390.75
2022-12-08T22:03:39.895Z,97391.69
2022-12-08T22:06:08.251Z,97385.34
2022-12-08T22:08:35.884Z,97390.44
2022-12-08T22:11:03.185Z,97394.34
2022-12-08T22:13:30.032Z,97387.22
2022-12-08T22:16:02.356Z,97389.13
2022-12-08T22:18:29.521Z,97367.81
2022-12-08T22:20:56.232Z,97378.59
2022-12-08T22:23:23.303Z,97382.16
2022-12-08T22:26:00.941Z,97379.41
2022-12-08T22:28:31.066Z,97381.66
2022-12-08T22:30:57.677Z,97386.34
2022-12-08T22:33:24.482Z,97366.50
2022-12-08T22:36:01.314Z,97387.63
2022-12-08T22:38:31.723Z,97380.97
2022-12-08T22:40:58.653Z,97380.41
2022-12-08T22:43:25.385Z,97381.09
2022-12-08T22:45:52.022Z,97380.16
2022-12-08T22:48:18.855Z,97372.38
2022-12-08T22:50:45.573Z,97380.16
2022-12-08T22:53:12.504Z,97390.88
2022-12-08T22:55:45.136Z,97382.88
2022-12-08T22:58:12.305Z,97385.31
2022-12-08T23:00:39.461Z,97353.38
2022-12-08T23:03:06.577Z,97387.59
2022-12-08T23:05:38.806Z,97396.72
2022-12-08T23:08:07.305Z,97388.31
2022-12-08T23:10:34.564Z,97381.81
2022-12-08T23:13:03.928Z,97387.03
2022-12-08T23:15:31.580Z,97393.22
2022-12-08T23:17:58.791Z,97392.91
2022-12-08T23:20:25.790Z,97393.72
2022-12-08T23:22:52.591Z,97387.84
2022-12-08T23:25:19.567Z,97386.72
2022-12-08T23:27:47.185Z,97388.03
2022-12-08T23:30:15.063Z,97390.94
2022-12-08T23:32:41.892Z,97382.00
2022-12-08T23:35:08.998Z,97383.59
2022-12-08T23:37:36.089Z,97368.31
2022-12-08T23:40:03.978Z,97383.94
2022-12-08T23:42:31.026Z,97377.59
2022-12-08T23:44:57.626Z,97379.53
2022-12-08T23:47:24.371Z,97386.22
2022-12-08T23:49:51.180Z,97383.13
2022-12-08T23:52:17.811Z,97379.72
2022-12-08T23:54:44.409Z,97388.31
2022-12-08T23:57:11.306Z,97373.03
2022-12-08T23:59:37.934Z,97381.81
